logo
Search for airport 
image banner adimage banner adimage banner ad
image banner ad

YKIRA - King Ranch

Located in , Australia

ICAO - , IATA -

Data provided by Airmate  

General information

Coordinates: S17°57'3" E145°45'35"
Elevation is 78 feet MSL.
Magnetic variation is 7° East
View others Airports in Queensland

Operational data

Special qualification required
Current time UTC:
Current local time:
Weather at : - ( 0 km )
METAR: PKWA 141720Z AUTO 06006KT 10SM SCT026 SCT031 27/25 A2980 RMK AO2 T02710249
View NOTAMs / SUP AIP / TFR affecting this airport [VIEW]
Communications frequencies: [VIEW]

Runways:

RWY identifierQFULength (ft)Width (ft)SurfaceLDA (ft)
0994°4646108DIRT
27274°4646108DIRT

Airport contact information

Address: Australia

Satellite view of YKIRA